Terminal Aerodrome Forecast
Issued by NWS

Home | Current Version | Previous Version | Text Only | Print | Product List | Glossary On
Versions: 1 2 3 4 5 6 7 8 9 10 11 12 13 14 15 16 17 18 19
000
FTUS43 KSGF 011100
TAFBBG
TAF
KBBG 011124Z 0112/0212 04006KT 6SM -SHRA SCT025 OVC080
      TEMPO 0112/0114 5SM -TSRA OVC025CB
     FM011500 16010G18KT P6SM SCT025 SCT050
      TEMPO 0115/0118 BKN025
     FM012300 18012G18KT P6SM SCT040 SCT100
     FM020500 16007KT P6SM VCTS SCT025 BKN050CB
      TEMPO 0206/0210 5SM -TSRA BR OVC025CB=

USA.gov is the U.S. government's official web portal to all federal, state and local government web resources and services.